sensor_id;sensor_type;location;lat;lon;timestamp;P1;durP1;ratioP1;P2;durP2;ratioP2
14817;SDS011;7500;57.698;11.986;2023-04-10T00:00:08;2.60;;;2.10;;
14817;SDS011;7500;57.698;11.986;2023-04-10T00:02:36;2.40;;;1.83;;
14817;SDS011;7500;57.698;11.986;2023-04-10T00:05:03;5.50;;;1.87;;
14817;SDS011;7500;57.698;11.986;2023-04-10T00:07:30;2.07;;;1.83;;
14817;SDS011;7500;57.698;11.986;2023-04-10T00:09:57;2.50;;;1.77;;
14817;SDS011;7500;57.698;11.986;2023-04-10T00:12:23;2.67;;;2.10;;
14817;SDS011;7500;57.698;11.986;2023-04-10T00:14:50;3.07;;;2.13;;
14817;SDS011;7500;57.698;11.986;2023-04-10T00:17:16;3.00;;;2.20;;
14817;SDS011;7500;57.698;11.986;2023-04-10T00:19:44;3.73;;;1.93;;
14817;SDS011;7500;57.698;11.986;2023-04-10T00:22:11;4.17;;;2.00;;
14817;SDS011;7500;57.698;11.986;2023-04-10T00:24:37;3.47;;;1.90;;
14817;SDS011;7500;57.698;11.986;2023-04-10T00:27:04;2.30;;;1.80;;
14817;SDS011;7500;57.698;11.986;2023-04-10T00:29:30;2.27;;;1.80;;
14817;SDS011;7500;57.698;11.986;2023-04-10T00:31:57;2.80;;;1.80;;
14817;SDS011;7500;57.698;11.986;2023-04-10T00:34:24;3.20;;;1.60;;
14817;SDS011;7500;57.698;11.986;2023-04-10T00:36:52;1.97;;;1.60;;
14817;SDS011;7500;57.698;11.986;2023-04-10T00:39:18;4.10;;;1.80;;
14817;SDS011;7500;57.698;11.986;2023-04-10T00:41:45;4.93;;;1.83;;
14817;SDS011;7500;57.698;11.986;2023-04-10T00:44:11;3.50;;;1.90;;
14817;SDS011;7500;57.698;11.986;2023-04-10T00:46:38;3.80;;;1.90;;
14817;SDS011;7500;57.698;11.986;2023-04-10T00:49:05;2.20;;;1.90;;
14817;SDS011;7500;57.698;11.986;2023-04-10T00:51:33;2.67;;;1.63;;
14817;SDS011;7500;57.698;11.986;2023-04-10T00:54:01;2.67;;;1.90;;
14817;SDS011;7500;57.698;11.986;2023-04-10T00:56:29;8.10;;;2.00;;
14817;SDS011;7500;57.698;11.986;2023-04-10T00:58:56;2.70;;;1.83;;
14817;SDS011;7500;57.698;11.986;2023-04-10T01:01:23;3.90;;;2.23;;
14817;SDS011;7500;57.698;11.986;2023-04-10T01:03:49;2.30;;;1.80;;
14817;SDS011;7500;57.698;11.986;2023-04-10T01:06:18;3.07;;;1.63;;
14817;SDS011;7500;57.698;11.986;2023-04-10T01:08:50;5.53;;;2.00;;
14817;SDS011;7500;57.698;11.986;2023-04-10T01:11:23;2.10;;;1.80;;
14817;SDS011;7500;57.698;11.986;2023-04-10T01:13:52;3.70;;;1.90;;
14817;SDS011;7500;57.698;11.986;2023-04-10T01:16:22;2.17;;;1.70;;
14817;SDS011;7500;57.698;11.986;2023-04-10T01:18:52;3.77;;;1.70;;
14817;SDS011;7500;57.698;11.986;2023-04-10T01:21:22;2.70;;;1.90;;
14817;SDS011;7500;57.698;11.986;2023-04-10T01:23:53;3.37;;;2.07;;
14817;SDS011;7500;57.698;11.986;2023-04-10T01:26:31;2.27;;;1.80;;
14817;SDS011;7500;57.698;11.986;2023-04-10T01:29:04;2.53;;;1.90;;
14817;SDS011;7500;57.698;11.986;2023-04-10T01:31:33;4.10;;;1.77;;
14817;SDS011;7500;57.698;11.986;2023-04-10T01:34:04;2.00;;;1.77;;
14817;SDS011;7500;57.698;11.986;2023-04-10T01:36:33;2.87;;;1.73;;
14817;SDS011;7500;57.698;11.986;2023-04-10T01:39:01;2.10;;;1.50;;
14817;SDS011;7500;57.698;11.986;2023-04-10T01:41:28;2.53;;;1.87;;
14817;SDS011;7500;57.698;11.986;2023-04-10T01:43:56;3.43;;;1.80;;
14817;SDS011;7500;57.698;11.986;2023-04-10T01:46:24;2.93;;;1.80;;
14817;SDS011;7500;57.698;11.986;2023-04-10T01:48:51;3.60;;;2.03;;
14817;SDS011;7500;57.698;11.986;2023-04-10T01:51:19;2.07;;;1.77;;
14817;SDS011;7500;57.698;11.986;2023-04-10T01:53:45;2.30;;;1.70;;
14817;SDS011;7500;57.698;11.986;2023-04-10T01:56:13;3.83;;;1.93;;
14817;SDS011;7500;57.698;11.986;2023-04-10T01:58:40;3.67;;;1.70;;
14817;SDS011;7500;57.698;11.986;2023-04-10T02:01:06;2.40;;;1.70;;
14817;SDS011;7500;57.698;11.986;2023-04-10T02:03:35;2.83;;;1.80;;
14817;SDS011;7500;57.698;11.986;2023-04-10T02:06:05;1.97;;;1.63;;
14817;SDS011;7500;57.698;11.986;2023-04-10T02:08:35;2.60;;;1.67;;
14817;SDS011;7500;57.698;11.986;2023-04-10T02:11:04;2.97;;;1.73;;
14817;SDS011;7500;57.698;11.986;2023-04-10T02:13:33;2.10;;;1.80;;
14817;SDS011;7500;57.698;11.986;2023-04-10T02:15:59;2.63;;;1.77;;
14817;SDS011;7500;57.698;11.986;2023-04-10T02:18:27;2.03;;;1.80;;
14817;SDS011;7500;57.698;11.986;2023-04-10T02:20:56;2.77;;;1.90;;
14817;SDS011;7500;57.698;11.986;2023-04-10T02:23:23;2.27;;;1.70;;
14817;SDS011;7500;57.698;11.986;2023-04-10T02:25:49;1.97;;;1.70;;
14817;SDS011;7500;57.698;11.986;2023-04-10T02:28:16;2.60;;;1.90;;
14817;SDS011;7500;57.698;11.986;2023-04-10T02:30:42;2.00;;;1.80;;
14817;SDS011;7500;57.698;11.986;2023-04-10T02:33:09;1.93;;;1.77;;
14817;SDS011;7500;57.698;11.986;2023-04-10T02:35:36;2.10;;;1.90;;
14817;SDS011;7500;57.698;11.986;2023-04-10T02:38:03;1.93;;;1.60;;
14817;SDS011;7500;57.698;11.986;2023-04-10T02:40:30;4.80;;;2.10;;
14817;SDS011;7500;57.698;11.986;2023-04-10T02:42:57;3.23;;;2.07;;
14817;SDS011;7500;57.698;11.986;2023-04-10T02:45:23;4.30;;;2.10;;
14817;SDS011;7500;57.698;11.986;2023-04-10T02:47:50;3.07;;;2.30;;
14817;SDS011;7500;57.698;11.986;2023-04-10T02:50:16;3.00;;;2.23;;
14817;SDS011;7500;57.698;11.986;2023-04-10T02:52:43;5.33;;;2.30;;
14817;SDS011;7500;57.698;11.986;2023-04-10T02:55:11;3.13;;;1.97;;
14817;SDS011;7500;57.698;11.986;2023-04-10T02:57:37;3.43;;;1.93;;
14817;SDS011;7500;57.698;11.986;2023-04-10T03:00:04;2.53;;;2.27;;
14817;SDS011;7500;57.698;11.986;2023-04-10T03:02:31;7.10;;;2.20;;
14817;SDS011;7500;57.698;11.986;2023-04-10T03:04:59;4.40;;;2.30;;
14817;SDS011;7500;57.698;11.986;2023-04-10T03:07:25;3.00;;;2.27;;
14817;SDS011;7500;57.698;11.986;2023-04-10T03:09:52;4.60;;;1.90;;
14817;SDS011;7500;57.698;11.986;2023-04-10T03:12:20;3.07;;;2.07;;
14817;SDS011;7500;57.698;11.986;2023-04-10T03:14:47;3.23;;;2.23;;
14817;SDS011;7500;57.698;11.986;2023-04-10T03:17:13;3.17;;;2.10;;
14817;SDS011;7500;57.698;11.986;2023-04-10T03:19:40;3.67;;;2.60;;
14817;SDS011;7500;57.698;11.986;2023-04-10T03:22:06;4.47;;;2.83;;
14817;SDS011;7500;57.698;11.986;2023-04-10T03:24:34;3.37;;;2.30;;
14817;SDS011;7500;57.698;11.986;2023-04-10T03:27:02;3.27;;;2.20;;
14817;SDS011;7500;57.698;11.986;2023-04-10T03:29:29;2.87;;;2.30;;
14817;SDS011;7500;57.698;11.986;2023-04-10T03:31:56;2.90;;;2.13;;
14817;SDS011;7500;57.698;11.986;2023-04-10T03:34:23;3.83;;;2.10;;
14817;SDS011;7500;57.698;11.986;2023-04-10T03:36:49;2.50;;;2.10;;
14817;SDS011;7500;57.698;11.986;2023-04-10T03:39:16;3.70;;;2.33;;
14817;SDS011;7500;57.698;11.986;2023-04-10T03:41:42;2.40;;;2.17;;
14817;SDS011;7500;57.698;11.986;2023-04-10T03:44:09;3.33;;;2.00;;
14817;SDS011;7500;57.698;11.986;2023-04-10T03:46:37;2.60;;;2.13;;
14817;SDS011;7500;57.698;11.986;2023-04-10T03:49:03;3.90;;;2.40;;
14817;SDS011;7500;57.698;11.986;2023-04-10T03:51:30;2.70;;;2.10;;
14817;SDS011;7500;57.698;11.986;2023-04-10T03:53:56;2.40;;;2.17;;
14817;SDS011;7500;57.698;11.986;2023-04-10T03:56:23;2.63;;;2.17;;
14817;SDS011;7500;57.698;11.986;2023-04-10T03:58:49;5.97;;;2.10;;
14817;SDS011;7500;57.698;11.986;2023-04-10T04:01:16;2.87;;;2.20;;
14817;SDS011;7500;57.698;11.986;2023-04-10T04:03:44;3.27;;;2.20;;
14817;SDS011;7500;57.698;11.986;2023-04-10T04:06:10;3.37;;;2.37;;
14817;SDS011;7500;57.698;11.986;2023-04-10T04:08:37;3.13;;;2.27;;
14817;SDS011;7500;57.698;11.986;2023-04-10T04:11:04;2.03;;;1.83;;
14817;SDS011;7500;57.698;11.986;2023-04-10T04:13:31;2.80;;;2.10;;
14817;SDS011;7500;57.698;11.986;2023-04-10T04:15:57;2.77;;;2.20;;
14817;SDS011;7500;57.698;11.986;2023-04-10T04:18:24;2.67;;;1.87;;
14817;SDS011;7500;57.698;11.986;2023-04-10T04:20:52;4.20;;;2.20;;
14817;SDS011;7500;57.698;11.986;2023-04-10T04:23:18;3.37;;;2.10;;
14817;SDS011;7500;57.698;11.986;2023-04-10T04:25:45;2.83;;;2.30;;
14817;SDS011;7500;57.698;11.986;2023-04-10T04:28:12;4.17;;;2.13;;
14817;SDS011;7500;57.698;11.986;2023-04-10T04:30:40;2.37;;;1.83;;
14817;SDS011;7500;57.698;11.986;2023-04-10T04:33:06;2.17;;;1.97;;
14817;SDS011;7500;57.698;11.986;2023-04-10T04:35:33;2.60;;;1.97;;
14817;SDS011;7500;57.698;11.986;2023-04-10T04:38:01;2.20;;;1.80;;
14817;SDS011;7500;57.698;11.986;2023-04-10T04:40:27;5.40;;;1.90;;
14817;SDS011;7500;57.698;11.986;2023-04-10T04:42:54;4.77;;;2.13;;
14817;SDS011;7500;57.698;11.986;2023-04-10T04:45:20;2.43;;;2.23;;
14817;SDS011;7500;57.698;11.986;2023-04-10T04:47:47;3.07;;;2.00;;
14817;SDS011;7500;57.698;11.986;2023-04-10T04:50:13;2.13;;;1.67;;
14817;SDS011;7500;57.698;11.986;2023-04-10T04:52:40;2.90;;;1.93;;
14817;SDS011;7500;57.698;11.986;2023-04-10T04:55:08;3.00;;;2.10;;
14817;SDS011;7500;57.698;11.986;2023-04-10T04:57:35;2.57;;;2.10;;
14817;SDS011;7500;57.698;11.986;2023-04-10T05:00:02;2.73;;;1.90;;
14817;SDS011;7500;57.698;11.986;2023-04-10T05:02:28;2.40;;;1.87;;
14817;SDS011;7500;57.698;11.986;2023-04-10T05:04:55;2.30;;;1.83;;
14817;SDS011;7500;57.698;11.986;2023-04-10T05:07:22;2.67;;;1.60;;
14817;SDS011;7500;57.698;11.986;2023-04-10T05:09:48;2.80;;;1.70;;
14817;SDS011;7500;57.698;11.986;2023-04-10T05:12:17;4.83;;;1.80;;
14817;SDS011;7500;57.698;11.986;2023-04-10T05:14:45;4.00;;;1.80;;
14817;SDS011;7500;57.698;11.986;2023-04-10T05:17:12;2.07;;;1.80;;
14817;SDS011;7500;57.698;11.986;2023-04-10T05:19:40;4.23;;;1.80;;
14817;SDS011;7500;57.698;11.986;2023-04-10T05:22:07;3.67;;;1.80;;
14817;SDS011;7500;57.698;11.986;2023-04-10T05:24:34;2.17;;;1.80;;
14817;SDS011;7500;57.698;11.986;2023-04-10T05:27:00;3.27;;;1.60;;
14817;SDS011;7500;57.698;11.986;2023-04-10T05:29:28;2.47;;;2.00;;
14817;SDS011;7500;57.698;11.986;2023-04-10T05:31:55;3.50;;;1.73;;
14817;SDS011;7500;57.698;11.986;2023-04-10T05:34:21;3.50;;;1.87;;
14817;SDS011;7500;57.698;11.986;2023-04-10T05:36:48;2.27;;;1.70;;
14817;SDS011;7500;57.698;11.986;2023-04-10T05:39:14;5.53;;;1.90;;
14817;SDS011;7500;57.698;11.986;2023-04-10T05:41:41;2.90;;;1.80;;
14817;SDS011;7500;57.698;11.986;2023-04-10T05:44:08;2.33;;;1.70;;
14817;SDS011;7500;57.698;11.986;2023-04-10T05:46:35;2.63;;;1.63;;
14817;SDS011;7500;57.698;11.986;2023-04-10T05:49:02;3.53;;;2.00;;
14817;SDS011;7500;57.698;11.986;2023-04-10T05:51:28;2.70;;;2.07;;
14817;SDS011;7500;57.698;11.986;2023-04-10T05:53:56;3.53;;;1.90;;
14817;SDS011;7500;57.698;11.986;2023-04-10T05:56:22;2.90;;;2.03;;
14817;SDS011;7500;57.698;11.986;2023-04-10T05:58:49;2.17;;;1.80;;
14817;SDS011;7500;57.698;11.986;2023-04-10T06:01:15;2.80;;;1.70;;
14817;SDS011;7500;57.698;11.986;2023-04-10T06:03:43;2.40;;;1.73;;
14817;SDS011;7500;57.698;11.986;2023-04-10T06:06:10;3.43;;;1.50;;
14817;SDS011;7500;57.698;11.986;2023-04-10T06:08:36;2.27;;;1.80;;
14817;SDS011;7500;57.698;11.986;2023-04-10T06:11:03;2.80;;;1.77;;
14817;SDS011;7500;57.698;11.986;2023-04-10T06:13:29;2.33;;;1.80;;
14817;SDS011;7500;57.698;11.986;2023-04-10T06:15:56;3.20;;;1.90;;
14817;SDS011;7500;57.698;11.986;2023-04-10T06:18:23;4.67;;;1.50;;
14817;SDS011;7500;57.698;11.986;2023-04-10T06:20:51;3.47;;;1.83;;
14817;SDS011;7500;57.698;11.986;2023-04-10T06:23:17;3.10;;;1.93;;
14817;SDS011;7500;57.698;11.986;2023-04-10T06:25:44;4.40;;;1.90;;
14817;SDS011;7500;57.698;11.986;2023-04-10T06:28:10;3.80;;;1.80;;
14817;SDS011;7500;57.698;11.986;2023-04-10T06:30:37;2.57;;;1.73;;
14817;SDS011;7500;57.698;11.986;2023-04-10T06:33:03;1.97;;;1.77;;
14817;SDS011;7500;57.698;11.986;2023-04-10T06:35:30;5.37;;;1.93;;
14817;SDS011;7500;57.698;11.986;2023-04-10T06:37:58;2.07;;;1.87;;
14817;SDS011;7500;57.698;11.986;2023-04-10T06:40:25;1.70;;;1.40;;
14817;SDS011;7500;57.698;11.986;2023-04-10T06:42:53;2.43;;;1.70;;
14817;SDS011;7500;57.698;11.986;2023-04-10T06:45:20;4.43;;;1.70;;
14817;SDS011;7500;57.698;11.986;2023-04-10T06:47:46;5.57;;;1.30;;
14817;SDS011;7500;57.698;11.986;2023-04-10T06:50:13;2.70;;;1.77;;
14817;SDS011;7500;57.698;11.986;2023-04-10T06:52:39;1.57;;;1.30;;
14817;SDS011;7500;57.698;11.986;2023-04-10T06:55:07;2.10;;;1.20;;
14817;SDS011;7500;57.698;11.986;2023-04-10T06:57:34;1.73;;;1.33;;
14817;SDS011;7500;57.698;11.986;2023-04-10T07:00:01;1.70;;;1.40;;
14817;SDS011;7500;57.698;11.986;2023-04-10T07:02:28;3.23;;;1.50;;
14817;SDS011;7500;57.698;11.986;2023-04-10T07:04:54;4.53;;;1.30;;
14817;SDS011;7500;57.698;11.986;2023-04-10T07:07:21;1.13;;;1.03;;
14817;SDS011;7500;57.698;11.986;2023-04-10T07:09:48;1.30;;;1.20;;
14817;SDS011;7500;57.698;11.986;2023-04-10T07:12:16;1.50;;;1.30;;
14817;SDS011;7500;57.698;11.986;2023-04-10T07:14:42;1.40;;;1.30;;
14817;SDS011;7500;57.698;11.986;2023-04-10T07:17:09;4.17;;;1.40;;
14817;SDS011;7500;57.698;11.986;2023-04-10T07:19:35;1.63;;;1.23;;
14817;SDS011;7500;57.698;11.986;2023-04-10T07:22:03;3.50;;;1.40;;
14817;SDS011;7500;57.698;11.986;2023-04-10T07:24:29;1.70;;;1.30;;
14817;SDS011;7500;57.698;11.986;2023-04-10T07:26:56;1.70;;;1.10;;
14817;SDS011;7500;57.698;11.986;2023-04-10T07:29:24;1.20;;;1.10;;
14817;SDS011;7500;57.698;11.986;2023-04-10T07:31:51;2.97;;;1.07;;
14817;SDS011;7500;57.698;11.986;2023-04-10T07:34:17;2.10;;;1.23;;
14817;SDS011;7500;57.698;11.986;2023-04-10T07:36:44;1.60;;;1.00;;
14817;SDS011;7500;57.698;11.986;2023-04-10T07:39:11;2.43;;;1.20;;
14817;SDS011;7500;57.698;11.986;2023-04-10T07:41:37;2.57;;;1.27;;
14817;SDS011;7500;57.698;11.986;2023-04-10T07:44:04;1.40;;;1.00;;
14817;SDS011;7500;57.698;11.986;2023-04-10T07:46:32;2.23;;;1.10;;
14817;SDS011;7500;57.698;11.986;2023-04-10T07:48:58;3.70;;;1.17;;
14817;SDS011;7500;57.698;11.986;2023-04-10T07:51:25;2.57;;;1.37;;
14817;SDS011;7500;57.698;11.986;2023-04-10T07:53:53;3.70;;;1.90;;
14817;SDS011;7500;57.698;11.986;2023-04-10T07:56:19;1.73;;;1.33;;
14817;SDS011;7500;57.698;11.986;2023-04-10T07:58:46;2.20;;;1.30;;
14817;SDS011;7500;57.698;11.986;2023-04-10T08:01:13;2.00;;;1.60;;
14817;SDS011;7500;57.698;11.986;2023-04-10T08:03:43;1.60;;;1.30;;
14817;SDS011;7500;57.698;11.986;2023-04-10T08:06:09;2.80;;;1.40;;
14817;SDS011;7500;57.698;11.986;2023-04-10T08:08:36;1.40;;;1.30;;
14817;SDS011;7500;57.698;11.986;2023-04-10T08:11:05;1.60;;;1.20;;
14817;SDS011;7500;57.698;11.986;2023-04-10T08:13:32;2.67;;;1.40;;
14817;SDS011;7500;57.698;11.986;2023-04-10T08:15:59;1.93;;;1.53;;
14817;SDS011;7500;57.698;11.986;2023-04-10T08:18:25;1.77;;;1.10;;
14817;SDS011;7500;57.698;11.986;2023-04-10T08:20:53;3.70;;;1.80;;
14817;SDS011;7500;57.698;11.986;2023-04-10T08:23:20;1.83;;;1.30;;
14817;SDS011;7500;57.698;11.986;2023-04-10T08:25:46;1.40;;;1.30;;
14817;SDS011;7500;57.698;11.986;2023-04-10T08:28:13;3.63;;;1.60;;
14817;SDS011;7500;57.698;11.986;2023-04-10T08:30:39;2.20;;;1.40;;
14817;SDS011;7500;57.698;11.986;2023-04-10T08:33:06;1.07;;;1.00;;
14817;SDS011;7500;57.698;11.986;2023-04-10T08:35:33;3.00;;;1.43;;
14817;SDS011;7500;57.698;11.986;2023-04-10T08:38:00;1.60;;;1.10;;
14817;SDS011;7500;57.698;11.986;2023-04-10T08:40:27;1.90;;;1.40;;
14817;SDS011;7500;57.698;11.986;2023-04-10T08:42:54;2.30;;;1.30;;
14817;SDS011;7500;57.698;11.986;2023-04-10T08:45:21;2.77;;;1.70;;
14817;SDS011;7500;57.698;11.986;2023-04-10T08:47:47;1.87;;;1.03;;
14817;SDS011;7500;57.698;11.986;2023-04-10T08:50:16;4.90;;;1.30;;
14817;SDS011;7500;57.698;11.986;2023-04-10T08:52:43;1.43;;;1.10;;
14817;SDS011;7500;57.698;11.986;2023-04-10T08:55:12;1.27;;;1.10;;
14817;SDS011;7500;57.698;11.986;2023-04-10T08:57:39;2.70;;;1.03;;
14817;SDS011;7500;57.698;11.986;2023-04-10T09:00:07;2.67;;;1.10;;
14817;SDS011;7500;57.698;11.986;2023-04-10T09:02:35;1.70;;;1.13;;
14817;SDS011;7500;57.698;11.986;2023-04-10T09:05:03;1.63;;;1.20;;
14817;SDS011;7500;57.698;11.986;2023-04-10T09:07:30;1.33;;;1.13;;
14817;SDS011;7500;57.698;11.986;2023-04-10T09:09:57;4.60;;;1.37;;
14817;SDS011;7500;57.698;11.986;2023-04-10T09:12:24;4.97;;;1.20;;
14817;SDS011;7500;57.698;11.986;2023-04-10T09:14:51;1.30;;;1.07;;
14817;SDS011;7500;57.698;11.986;2023-04-10T09:17:18;3.97;;;1.20;;
14817;SDS011;7500;57.698;11.986;2023-04-10T09:19:46;2.70;;;1.30;;
14817;SDS011;7500;57.698;11.986;2023-04-10T09:22:13;2.40;;;1.10;;
14817;SDS011;7500;57.698;11.986;2023-04-10T09:24:40;1.20;;;1.10;;
14817;SDS011;7500;57.698;11.986;2023-04-10T09:27:08;1.37;;;1.17;;
14817;SDS011;7500;57.698;11.986;2023-04-10T09:29:40;1.23;;;1.00;;
14817;SDS011;7500;57.698;11.986;2023-04-10T09:32:06;1.87;;;1.00;;
14817;SDS011;7500;57.698;11.986;2023-04-10T09:34:33;2.67;;;1.57;;
14817;SDS011;7500;57.698;11.986;2023-04-10T09:37:00;1.93;;;1.30;;
14817;SDS011;7500;57.698;11.986;2023-04-10T09:39:32;4.47;;;1.20;;
14817;SDS011;7500;57.698;11.986;2023-04-10T09:41:59;2.13;;;0.97;;
14817;SDS011;7500;57.698;11.986;2023-04-10T09:44:29;1.70;;;1.00;;
14817;SDS011;7500;57.698;11.986;2023-04-10T09:46:57;1.40;;;1.10;;
14817;SDS011;7500;57.698;11.986;2023-04-10T09:49:24;3.67;;;1.20;;
14817;SDS011;7500;57.698;11.986;2023-04-10T09:51:51;2.00;;;1.13;;
14817;SDS011;7500;57.698;11.986;2023-04-10T09:54:17;2.20;;;1.00;;
14817;SDS011;7500;57.698;11.986;2023-04-10T09:56:44;3.13;;;1.37;;
14817;SDS011;7500;57.698;11.986;2023-04-10T09:59:11;2.77;;;1.10;;
14817;SDS011;7500;57.698;11.986;2023-04-10T10:01:39;3.97;;;1.10;;
14817;SDS011;7500;57.698;11.986;2023-04-10T10:04:07;1.50;;;1.10;;
14817;SDS011;7500;57.698;11.986;2023-04-10T10:06:35;1.20;;;1.10;;
14817;SDS011;7500;57.698;11.986;2023-04-10T10:09:03;2.30;;;1.00;;
14817;SDS011;7500;57.698;11.986;2023-04-10T10:11:31;0.80;;;0.80;;
14817;SDS011;7500;57.698;11.986;2023-04-10T10:13:58;1.90;;;1.07;;
14817;SDS011;7500;57.698;11.986;2023-04-10T10:16:27;1.43;;;1.10;;
14817;SDS011;7500;57.698;11.986;2023-04-10T10:18:57;2.37;;;1.00;;
14817;SDS011;7500;57.698;11.986;2023-04-10T10:21:28;8.33;;;1.30;;
14817;SDS011;7500;57.698;11.986;2023-04-10T10:23:58;3.67;;;1.10;;
14817;SDS011;7500;57.698;11.986;2023-04-10T10:26:26;3.40;;;1.17;;
14817;SDS011;7500;57.698;11.986;2023-04-10T10:28:53;1.33;;;1.07;;
14817;SDS011;7500;57.698;11.986;2023-04-10T10:31:21;2.47;;;1.23;;
14817;SDS011;7500;57.698;11.986;2023-04-10T10:33:49;2.67;;;1.40;;
14817;SDS011;7500;57.698;11.986;2023-04-10T10:36:16;2.90;;;1.10;;
14817;SDS011;7500;57.698;11.986;2023-04-10T10:38:47;2.00;;;1.40;;
14817;SDS011;7500;57.698;11.986;2023-04-10T10:41:17;1.80;;;1.13;;
14817;SDS011;7500;57.698;11.986;2023-04-10T10:43:47;2.07;;;1.87;;
14817;SDS011;7500;57.698;11.986;2023-04-10T10:46:16;2.50;;;1.10;;
14817;SDS011;7500;57.698;11.986;2023-04-10T10:48:54;1.50;;;1.37;;
14817;SDS011;7500;57.698;11.986;2023-04-10T10:51:20;1.67;;;1.20;;
14817;SDS011;7500;57.698;11.986;2023-04-10T10:53:48;2.90;;;1.80;;
14817;SDS011;7500;57.698;11.986;2023-04-10T10:56:34;2.43;;;1.50;;
14817;SDS011;7500;57.698;11.986;2023-04-10T10:59:03;3.87;;;1.67;;
14817;SDS011;7500;57.698;11.986;2023-04-10T11:01:30;4.13;;;1.47;;
14817;SDS011;7500;57.698;11.986;2023-04-10T11:03:56;2.00;;;1.43;;
14817;SDS011;7500;57.698;11.986;2023-04-10T11:09:15;2.10;;;1.40;;
14817;SDS011;7500;57.698;11.986;2023-04-10T11:12:03;3.93;;;1.50;;
14817;SDS011;7500;57.698;11.986;2023-04-10T11:14:31;2.70;;;1.40;;
14817;SDS011;7500;57.698;11.986;2023-04-10T11:16:58;2.83;;;1.40;;
14817;SDS011;7500;57.698;11.986;2023-04-10T11:19:25;3.37;;;1.40;;
14817;SDS011;7500;57.698;11.986;2023-04-10T11:22:02;2.70;;;1.53;;
14817;SDS011;7500;57.698;11.986;2023-04-10T11:24:29;2.50;;;1.67;;
14817;SDS011;7500;57.698;11.986;2023-04-10T11:30:04;3.37;;;1.73;;
14817;SDS011;7500;57.698;11.986;2023-04-10T11:32:50;1.63;;;1.50;;
14817;SDS011;7500;57.698;11.986;2023-04-10T11:35:17;2.83;;;2.10;;
14817;SDS011;7500;57.698;11.986;2023-04-10T11:37:44;2.57;;;1.10;;
14817;SDS011;7500;57.698;11.986;2023-04-10T11:40:11;2.90;;;1.80;;
14817;SDS011;7500;57.698;11.986;2023-04-10T11:42:38;3.33;;;1.60;;
14817;SDS011;7500;57.698;11.986;2023-04-10T11:47:50;2.50;;;1.40;;
14817;SDS011;7500;57.698;11.986;2023-04-10T11:50:17;1.63;;;1.50;;
14817;SDS011;7500;57.698;11.986;2023-04-10T11:52:45;2.07;;;1.30;;
14817;SDS011;7500;57.698;11.986;2023-04-10T11:55:11;1.47;;;1.37;;
14817;SDS011;7500;57.698;11.986;2023-04-10T11:57:38;3.77;;;1.60;;
14817;SDS011;7500;57.698;11.986;2023-04-10T12:00:05;5.57;;;1.57;;
14817;SDS011;7500;57.698;11.986;2023-04-10T12:02:32;3.83;;;1.70;;
14817;SDS011;7500;57.698;11.986;2023-04-10T12:05:00;1.80;;;1.50;;
14817;SDS011;7500;57.698;11.986;2023-04-10T12:07:26;3.27;;;1.70;;
14817;SDS011;7500;57.698;11.986;2023-04-10T12:09:54;1.33;;;1.23;;
14817;SDS011;7500;57.698;11.986;2023-04-10T12:12:26;3.40;;;1.93;;
14817;SDS011;7500;57.698;11.986;2023-04-10T12:14:59;2.13;;;1.57;;
14817;SDS011;7500;57.698;11.986;2023-04-10T12:17:25;1.83;;;1.60;;
14817;SDS011;7500;57.698;11.986;2023-04-10T12:19:53;3.63;;;1.40;;
14817;SDS011;7500;57.698;11.986;2023-04-10T12:22:21;2.33;;;1.33;;
14817;SDS011;7500;57.698;11.986;2023-04-10T12:24:48;2.90;;;1.50;;
14817;SDS011;7500;57.698;11.986;2023-04-10T12:27:15;1.80;;;1.53;;
14817;SDS011;7500;57.698;11.986;2023-04-10T12:29:42;3.53;;;1.40;;
14817;SDS011;7500;57.698;11.986;2023-04-10T12:32:09;3.30;;;1.80;;
14817;SDS011;7500;57.698;11.986;2023-04-10T12:34:36;4.07;;;1.80;;
14817;SDS011;7500;57.698;11.986;2023-04-10T12:37:02;2.07;;;1.20;;
14817;SDS011;7500;57.698;11.986;2023-04-10T12:39:31;2.70;;;1.63;;
14817;SDS011;7500;57.698;11.986;2023-04-10T12:42:10;1.47;;;1.37;;
14817;SDS011;7500;57.698;11.986;2023-04-10T12:44:48;1.67;;;1.50;;
14817;SDS011;7500;57.698;11.986;2023-04-10T12:47:15;1.40;;;1.30;;
14817;SDS011;7500;57.698;11.986;2023-04-10T12:49:41;2.00;;;1.30;;
14817;SDS011;7500;57.698;11.986;2023-04-10T12:52:08;4.03;;;1.70;;
14817;SDS011;7500;57.698;11.986;2023-04-10T12:54:36;4.80;;;1.63;;
14817;SDS011;7500;57.698;11.986;2023-04-10T12:57:02;1.83;;;1.50;;
14817;SDS011;7500;57.698;11.986;2023-04-10T12:59:29;3.00;;;1.60;;
14817;SDS011;7500;57.698;11.986;2023-04-10T13:01:56;3.17;;;1.60;;
14817;SDS011;7500;57.698;11.986;2023-04-10T13:04:23;1.77;;;1.40;;
14817;SDS011;7500;57.698;11.986;2023-04-10T13:06:50;1.90;;;1.40;;
14817;SDS011;7500;57.698;11.986;2023-04-10T13:09:17;4.17;;;1.70;;
14817;SDS011;7500;57.698;11.986;2023-04-10T13:11:45;7.70;;;1.83;;
14817;SDS011;7500;57.698;11.986;2023-04-10T13:14:11;3.47;;;1.80;;
14817;SDS011;7500;57.698;11.986;2023-04-10T13:16:38;1.67;;;1.57;;
14817;SDS011;7500;57.698;11.986;2023-04-10T13:19:04;4.13;;;1.70;;
14817;SDS011;7500;57.698;11.986;2023-04-10T13:21:31;3.93;;;1.50;;
14817;SDS011;7500;57.698;11.986;2023-04-10T13:23:57;2.70;;;1.40;;
14817;SDS011;7500;57.698;11.986;2023-04-10T13:26:24;1.87;;;1.53;;
14817;SDS011;7500;57.698;11.986;2023-04-10T13:28:52;1.50;;;1.27;;
14817;SDS011;7500;57.698;11.986;2023-04-10T13:31:18;2.13;;;1.23;;
14817;SDS011;7500;57.698;11.986;2023-04-10T13:33:45;2.63;;;1.37;;
14817;SDS011;7500;57.698;11.986;2023-04-10T13:36:12;3.47;;;1.50;;
14817;SDS011;7500;57.698;11.986;2023-04-10T13:38:39;4.87;;;1.77;;
14817;SDS011;7500;57.698;11.986;2023-04-10T13:41:05;2.00;;;1.37;;
14817;SDS011;7500;57.698;11.986;2023-04-10T13:43:32;2.90;;;1.70;;
14817;SDS011;7500;57.698;11.986;2023-04-10T13:46:00;5.43;;;1.70;;
14817;SDS011;7500;57.698;11.986;2023-04-10T13:48:26;3.50;;;1.70;;
14817;SDS011;7500;57.698;11.986;2023-04-10T13:50:53;2.67;;;1.70;;
14817;SDS011;7500;57.698;11.986;2023-04-10T13:53:20;1.73;;;1.60;;
14817;SDS011;7500;57.698;11.986;2023-04-10T13:55:46;3.87;;;1.50;;
14817;SDS011;7500;57.698;11.986;2023-04-10T13:58:14;2.43;;;1.40;;
14817;SDS011;7500;57.698;11.986;2023-04-10T14:00:41;1.70;;;1.60;;
14817;SDS011;7500;57.698;11.986;2023-04-10T14:03:09;1.97;;;1.50;;
14817;SDS011;7500;57.698;11.986;2023-04-10T14:05:36;1.80;;;1.50;;
14817;SDS011;7500;57.698;11.986;2023-04-10T14:08:03;4.27;;;1.80;;
14817;SDS011;7500;57.698;11.986;2023-04-10T14:10:29;3.80;;;1.77;;
14817;SDS011;7500;57.698;11.986;2023-04-10T14:12:56;5.37;;;2.10;;
14817;SDS011;7500;57.698;11.986;2023-04-10T14:15:22;9.80;;;1.73;;
14817;SDS011;7500;57.698;11.986;2023-04-10T14:17:49;2.97;;;1.80;;
14817;SDS011;7500;57.698;11.986;2023-04-10T14:20:17;3.20;;;2.00;;
14817;SDS011;7500;57.698;11.986;2023-04-10T14:22:43;3.83;;;1.73;;
14817;SDS011;7500;57.698;11.986;2023-04-10T14:25:11;6.73;;;1.80;;
14817;SDS011;7500;57.698;11.986;2023-04-10T14:27:39;3.53;;;1.67;;
14817;SDS011;7500;57.698;11.986;2023-04-10T14:30:07;2.73;;;1.83;;
14817;SDS011;7500;57.698;11.986;2023-04-10T14:32:33;6.20;;;1.90;;
14817;SDS011;7500;57.698;11.986;2023-04-10T14:35:00;1.80;;;1.60;;
14817;SDS011;7500;57.698;11.986;2023-04-10T14:37:28;3.70;;;2.00;;
14817;SDS011;7500;57.698;11.986;2023-04-10T14:39:54;5.07;;;2.13;;
14817;SDS011;7500;57.698;11.986;2023-04-10T14:42:21;3.73;;;2.40;;
14817;SDS011;7500;57.698;11.986;2023-04-10T14:44:48;5.10;;;2.27;;
14817;SDS011;7500;57.698;11.986;2023-04-10T14:47:15;2.33;;;2.10;;
14817;SDS011;7500;57.698;11.986;2023-04-10T14:49:41;5.37;;;1.87;;
14817;SDS011;7500;57.698;11.986;2023-04-10T14:52:08;2.07;;;1.80;;
14817;SDS011;7500;57.698;11.986;2023-04-10T14:54:36;3.33;;;2.10;;
14817;SDS011;7500;57.698;11.986;2023-04-10T14:57:03;3.00;;;2.03;;